PRC - Prescott Rgnl Ernest A Love Fld

Pirep is a free, collaborative database of all public and private airports located within the United States. All pilots are welcome to contribute, edit, and improve any airport they have local knowledge about, no registration required.
Uploaded photos will be licensed under a CC BY-SA 4.0 license. Please only upload photos you have the rights to use.
Tags
Public
Golfing
Food
METAR / TAF
Edit Tags
Camping
Lodging
Car Rental
Bicycles
Swimming
Fishing
Hot Springs
Museum
Flying Clubs
Airpark
Upcoming Events
No upcoming events. Is anything happening here soon?
*
*
*

Where exactly on/near the airport is this event taking place?

Is there a webpage with more information for this event?

Who should be contacted for more information?

What is this event all about?

Repeat every
Description
Last updated: 2023-09-06 22:11:50 MST
Transient Parking
Fuel Location
Last updated: 2023-04-14 06:13:39 MST
Landing & Tie-down Fees
Crew Car Availability
Flying Clubs
WiFi Access
Airport Statistics
Location: Prescott, AZ
Elevation: 5,045ft
Sectional: Phoenix
Activation date: Apr 1940
Fuel: 100LL, A (prices)
Runway 03R/21L: 7,619ft
Runway 03L/21R: 4,846ft
Runway 12/30: 4,408ft
Access: Open to the public
Current Weather — VFR
  • Weather data is strictly informational and not for flight planning purposes.
  • METAR
    2024-05-29 08:53:00 MST
    Ceiling Wind Temperature Dewpoint Weather Visbility
    Sky clear Variable 75°F 19°F N/A 10SM
    Raw: KPRC 291553Z VRB06KT 10SM CLR 24/M07 A3014 RMK AO2 SLP123 T02391067
  • TAF
    2024-05-29 05:00:00 MST – 2024-05-29 10:00:00 MST
    Ceiling Wind Weather Visbility
    Sky clear 180° @ 7kt N/A 6SM
    Clouds: @ ft
    Raw: KPRC 291120Z 2912/3012 18007KT P6SM SKC FM291700 21012G20KT P6SM FEW250 FM300200 21005KT P6SM SKC
  • TAF
    2024-05-29 10:00:00 MST – 2024-05-29 19:00:00 MST
    Ceiling Wind Weather Visbility
    Sky clear 210° @ 12kt, gusts 20kt N/A 6SM
    Clouds: Few @ 25,000ft
    Raw: KPRC 291120Z 2912/3012 18007KT P6SM SKC FM291700 21012G20KT P6SM FEW250 FM300200 21005KT P6SM SKC
  • TAF
    2024-05-29 19:00:00 MST – 2024-05-30 05:00:00 MST
    Ceiling Wind Weather Visbility
    Sky clear 210° @ 5kt N/A 6SM
    Clouds: @ ft
    Raw: KPRC 291120Z 2912/3012 18007KT P6SM SKC FM291700 21012G20KT P6SM FEW250 FM300200 21005KT P6SM SKC
Click/tap to add an annotation marker to the map
Airport Webcams
No webcams added yet.
Direct links to live image URLs will be displayed inline on this page. URLs to separate webpages will be linked to.
URL:
Direct links to live image URLs will be displayed inline on this page. URLs to separate webpages will be linked to.
URL:
Remarks
  • Eff rwy gradient rwy 12 0.6% up; rwy 21l 1.0% up; rwy 21r 0.8 up.
  • Rwy 21l designated calm wind rwy.
  • Acft depg rwy 21l continue ry heading until across hwy and make immediate left turn.
  • 20 ft drop-off 300 ft from apch end rwy 12.
  • Overnight parking fee.
Comments
  • This comment was flagged as outdated on .

    HEAVY student traffic from ERAU

    Created about 1 year ago (2023-04-14 08:39:36 UTC)
    Helpful count: 0
Leave a comment What was your experience like at this airport?